createdAt,value
2018-09-10T00:01:49.060Z,87.10
2018-09-10T00:04:23.592Z,87.00
2018-09-10T00:06:59.335Z,87.40
2018-09-10T00:09:34.994Z,87.70
2018-09-10T00:12:11.098Z,87.60
2018-09-10T00:14:46.731Z,87.40
2018-09-10T00:17:24.934Z,87.20
2018-09-10T00:19:59.338Z,87.10
2018-09-10T00:22:34.079Z,87.20
2018-09-10T00:25:10.172Z,87.30
2018-09-10T00:27:45.763Z,87.80
2018-09-10T00:30:21.432Z,88.20
2018-09-10T00:32:57.123Z,88.70
2018-09-10T00:35:32.751Z,89.20
2018-09-10T00:38:07.378Z,89.00
2018-09-10T00:40:41.744Z,89.50
2018-09-10T00:43:17.083Z,89.60
2018-09-10T00:45:51.828Z,89.70
2018-09-10T00:48:26.363Z,90.00
2018-09-10T00:51:00.655Z,90.00
2018-09-10T00:53:35.203Z,90.00
2018-09-10T00:56:09.670Z,90.10
2018-09-10T00:58:44.251Z,90.20
2018-09-10T01:01:18.602Z,90.20
2018-09-10T01:03:54.149Z,90.40
2018-09-10T01:06:30.084Z,90.60
2018-09-10T01:09:07.496Z,90.60
2018-09-10T01:11:43.111Z,90.60
2018-09-10T01:14:19.408Z,90.70
2018-09-10T01:16:53.808Z,90.90
2018-09-10T01:19:29.535Z,91.10
2018-09-10T01:22:04.175Z,91.30
2018-09-10T01:24:39.926Z,91.50
2018-09-10T01:27:15.535Z,91.60
2018-09-10T01:29:50.048Z,91.70
2018-09-10T01:32:25.665Z,91.90
2018-09-10T01:35:06.319Z,91.80
2018-09-10T01:37:42.272Z,91.90
2018-09-10T01:40:24.559Z,91.90
2018-09-10T01:42:58.928Z,91.80
2018-09-10T01:45:33.588Z,91.90
2018-09-10T01:48:07.972Z,91.90
2018-09-10T01:50:42.843Z,92.10
2018-09-10T01:53:17.156Z,92.10
2018-09-10T01:55:51.644Z,92.10
2018-09-10T01:58:25.899Z,92.30
2018-09-10T02:01:01.895Z,92.50
2018-09-10T02:03:36.323Z,92.60
2018-09-10T02:06:13.686Z,92.60
2018-09-10T02:08:49.357Z,92.60
2018-09-10T02:11:24.766Z,92.40
2018-09-10T02:14:00.496Z,92.70
2018-09-10T02:16:36.451Z,92.30
2018-09-10T02:19:11.956Z,92.10
2018-09-10T02:21:46.609Z,92.10
2018-09-10T02:24:21.105Z,92.30
2018-09-10T02:26:56.863Z,92.20
2018-09-10T02:29:31.190Z,92.10
2018-09-10T02:32:06.727Z,92.20
2018-09-10T02:34:41.172Z,92.30
2018-09-10T02:37:15.663Z,92.30
2018-09-10T02:39:51.259Z,92.30
2018-09-10T02:42:26.731Z,92.50
2018-09-10T02:45:01.195Z,92.50
2018-09-10T02:47:35.699Z,92.60
2018-09-10T02:50:10.431Z,92.50
2018-09-10T02:52:44.684Z,92.20
2018-09-10T02:55:19.716Z,92.60
2018-09-10T02:57:55.379Z,92.80
2018-09-10T03:00:29.881Z,93.00
2018-09-10T03:03:04.329Z,93.10
2018-09-10T03:05:39.328Z,93.00
2018-09-10T03:08:15.591Z,93.00
2018-09-10T03:10:51.769Z,93.00
2018-09-10T03:13:28.320Z,93.00
2018-09-10T03:16:04.587Z,92.90
2018-09-10T03:18:40.978Z,92.90
2018-09-10T03:21:15.442Z,92.80
2018-09-10T03:23:50.013Z,92.70
2018-09-10T03:26:26.180Z,92.80
2018-09-10T03:29:01.037Z,93.00
2018-09-10T03:31:37.290Z,93.20
2018-09-10T03:34:11.952Z,93.30
2018-09-10T03:36:48.151Z,93.40
2018-09-10T03:39:22.858Z,93.40
2018-09-10T03:41:57.155Z,93.20
2018-09-10T03:44:33.435Z,93.20
2018-09-10T03:47:07.756Z,93.30
2018-09-10T03:49:42.218Z,93.40
2018-09-10T03:52:18.784Z,93.60
2018-09-10T03:54:53.599Z,93.70
2018-09-10T03:57:28.003Z,94.00
2018-09-10T04:00:04.186Z,94.10
2018-09-10T04:02:38.583Z,94.30
2018-09-10T04:05:13.220Z,94.20
2018-09-10T04:07:49.359Z,94.20
2018-09-10T04:10:26.059Z,94.30
2018-09-10T04:13:00.412Z,94.30
2018-09-10T04:15:36.147Z,94.60
2018-09-10T04:18:11.703Z,94.70
2018-09-10T04:20:46.160Z,94.80
2018-09-10T04:23:20.569Z,94.70
2018-09-10T04:25:58.844Z,94.70
2018-09-10T04:28:34.343Z,94.60
2018-09-10T04:31:10.040Z,94.80
2018-09-10T04:33:45.379Z,94.90
2018-09-10T04:36:19.812Z,94.80
2018-09-10T04:38:54.218Z,94.70
2018-09-10T04:41:35.843Z,94.80
2018-09-10T04:44:10.268Z,94.90
2018-09-10T04:46:44.739Z,95.10
2018-09-10T04:49:20.665Z,94.90
2018-09-10T04:51:55.291Z,95.00
2018-09-10T04:54:29.696Z,94.90
2018-09-10T04:57:04.492Z,94.70
2018-09-10T04:59:38.807Z,94.80
2018-09-10T05:02:13.252Z,94.80
2018-09-10T05:04:47.965Z,94.60
2018-09-10T05:07:25.454Z,94.50
2018-09-10T05:10:05.497Z,94.60
2018-09-10T05:12:40.128Z,94.60
2018-09-10T05:15:15.624Z,94.60
2018-09-10T05:17:51.980Z,94.50
2018-09-10T05:20:27.475Z,94.60
2018-09-10T05:23:02.003Z,94.70
2018-09-10T05:25:45.044Z,94.70
2018-09-10T05:28:20.824Z,94.70
2018-09-10T05:30:56.424Z,94.80
2018-09-10T05:33:30.757Z,94.70
2018-09-10T05:36:05.101Z,94.60
2018-09-10T05:38:39.503Z,94.40
2018-09-10T05:44:01.090Z,94.20
2018-09-10T05:46:35.786Z,94.00
2018-09-10T05:49:10.113Z,94.10
2018-09-10T05:51:45.423Z,94.00
2018-09-10T05:54:19.774Z,93.60
2018-09-10T05:56:56.050Z,93.50
2018-09-10T05:59:31.672Z,93.20
2018-09-10T06:02:07.325Z,92.70
2018-09-10T06:04:41.739Z,92.60
2018-09-10T06:07:17.251Z,92.50
2018-09-10T06:09:51.691Z,92.50
2018-09-10T06:12:27.170Z,92.40
2018-09-10T06:15:02.804Z,92.20
2018-09-10T06:17:38.439Z,92.00
2018-09-10T06:20:12.759Z,91.50
2018-09-10T06:22:48.207Z,91.40
2018-09-10T06:25:22.473Z,91.40
2018-09-10T06:27:58.204Z,90.70
2018-09-10T06:30:34.261Z,90.50
2018-09-10T06:33:10.116Z,90.10
2018-09-10T06:35:44.640Z,89.80
2018-09-10T06:38:19.101Z,89.00
2018-09-10T06:40:53.443Z,88.50
2018-09-10T06:43:29.240Z,88.10
2018-09-10T06:46:03.658Z,87.90
2018-09-10T06:48:38.087Z,86.50
2018-09-10T06:51:12.572Z,86.00
2018-09-10T06:53:47.799Z,85.40
2018-09-10T06:56:23.602Z,85.00
2018-09-10T06:58:58.096Z,84.50
2018-09-10T07:01:32.384Z,82.90
2018-09-10T07:04:07.290Z,83.90
2018-09-10T07:06:43.243Z,82.70
2018-09-10T07:09:17.799Z,82.50
2018-09-10T07:11:53.608Z,82.10
2018-09-10T07:14:29.464Z,80.50
2018-09-10T07:17:03.917Z,79.90
2018-09-10T07:19:39.329Z,79.90
2018-09-10T07:22:15.323Z,78.30
2018-09-10T07:24:49.907Z,78.50
2018-09-10T07:27:25.448Z,78.10
2018-09-10T07:32:47.840Z,76.50
2018-09-10T07:35:22.276Z,75.60
2018-09-10T07:37:56.672Z,73.40
2018-09-10T07:40:32.307Z,73.30
2018-09-10T07:43:07.692Z,73.50
2018-09-10T07:45:42.071Z,73.70
2018-09-10T07:48:16.520Z,71.40
2018-09-10T07:50:50.857Z,71.60
2018-09-10T07:53:25.295Z,70.50
2018-09-10T07:55:59.779Z,69.20
2018-09-10T07:58:34.486Z,67.90
2018-09-10T08:01:08.906Z,65.30
2018-09-10T08:03:43.231Z,65.10
2018-09-10T08:06:18.659Z,64.40
2018-09-10T08:09:01.609Z,63.80
2018-09-10T08:11:37.284Z,61.00
2018-09-10T08:14:14.738Z,60.90
2018-09-10T08:16:49.087Z,59.50
2018-09-10T08:19:24.603Z,60.10
2018-09-10T08:22:00.660Z,61.40
2018-09-10T08:24:36.174Z,60.80
2018-09-10T08:27:11.769Z,60.60
2018-09-10T08:29:46.378Z,59.70
2018-09-10T08:32:21.837Z,58.60
2018-09-10T08:34:56.297Z,57.60
2018-09-10T08:37:30.617Z,57.50
2018-09-10T08:40:06.326Z,55.20
2018-09-10T08:42:42.397Z,54.80
2018-09-10T08:45:17.411Z,55.40
2018-09-10T08:47:53.499Z,56.50
2018-09-10T08:50:28.043Z,56.30
2018-09-10T08:53:02.399Z,56.20
2018-09-10T08:55:36.974Z,55.00
2018-09-10T08:58:11.309Z,55.60
2018-09-10T09:00:45.807Z,56.40
2018-09-10T09:03:20.213Z,54.90
2018-09-10T09:05:55.978Z,54.30
2018-09-10T09:08:31.716Z,55.30
2018-09-10T09:11:08.271Z,54.70
2018-09-10T09:13:44.239Z,53.60
2018-09-10T09:16:20.303Z,51.60
2018-09-10T09:18:55.746Z,50.60
2018-09-10T09:21:31.413Z,52.60
2018-09-10T09:24:05.821Z,53.20
2018-09-10T09:26:41.466Z,52.20
2018-09-10T09:29:15.906Z,52.70
2018-09-10T09:31:51.551Z,51.40
2018-09-10T09:34:31.283Z,49.60
2018-09-10T09:37:11.213Z,49.20
2018-09-10T09:39:50.960Z,50.00
2018-09-10T09:42:30.855Z,50.50
2018-09-10T09:45:12.783Z,50.90
2018-09-10T09:47:47.068Z,48.00
2018-09-10T09:50:21.434Z,49.30
2018-09-10T09:52:56.075Z,48.70
2018-09-10T09:55:31.895Z,49.60
2018-09-10T09:58:06.263Z,48.20
2018-09-10T10:00:49.950Z,49.10
2018-09-10T10:03:29.747Z,47.30
2018-09-10T10:06:13.503Z,46.80
2018-09-10T10:08:47.760Z,47.80
2018-09-10T10:11:23.358Z,46.50
2018-09-10T10:13:58.857Z,47.60
2018-09-10T10:16:34.327Z,48.50
2018-09-10T10:19:09.695Z,45.40
2018-09-10T10:21:45.750Z,47.10
2018-09-10T10:24:20.020Z,46.00
2018-09-10T10:26:56.799Z,46.50
2018-09-10T10:29:32.387Z,48.20
2018-09-10T10:32:08.043Z,45.60
2018-09-10T10:34:42.402Z,45.10
2018-09-10T10:37:17.001Z,44.30
2018-09-10T10:39:51.319Z,43.80
2018-09-10T10:42:25.746Z,43.30
2018-09-10T10:45:01.434Z,42.90
2018-09-10T10:47:37.080Z,44.00
2018-09-10T10:50:12.911Z,43.70
2018-09-10T10:52:47.343Z,43.70
2018-09-10T10:55:21.811Z,43.50
2018-09-10T10:57:56.262Z,43.40
2018-09-10T11:00:31.916Z,42.90
2018-09-10T11:03:07.967Z,43.70
2018-09-10T11:05:42.272Z,43.70
2018-09-10T11:08:17.704Z,44.00
2018-09-10T11:10:53.290Z,43.90
2018-09-10T11:13:29.195Z,44.60
2018-09-10T11:16:04.778Z,44.70
2018-09-10T11:18:40.435Z,44.10
2018-09-10T11:21:15.581Z,44.00
2018-09-10T11:23:51.191Z,44.20
2018-09-10T11:26:27.036Z,45.30
2018-09-10T11:29:01.402Z,44.70
2018-09-10T11:31:37.043Z,44.60
2018-09-10T11:34:11.384Z,44.20
2018-09-10T11:36:47.125Z,45.20
2018-09-10T11:39:21.585Z,45.50
2018-09-10T11:41:56.156Z,45.20
2018-09-10T11:44:31.919Z,44.50
2018-09-10T11:47:06.394Z,43.90
2018-09-10T11:49:40.883Z,43.80
2018-09-10T11:52:15.406Z,44.00
2018-09-10T11:54:49.671Z,41.60
2018-09-10T11:57:24.088Z,40.50
2018-09-10T11:59:58.371Z,40.60
2018-09-10T12:02:34.284Z,42.40
2018-09-10T12:05:08.671Z,41.40
2018-09-10T12:07:44.058Z,42.00
2018-09-10T12:10:19.599Z,42.60
2018-09-10T12:12:53.999Z,40.40
2018-09-10T12:15:29.891Z,40.60
2018-09-10T13:12:15.558Z,41.10
2018-09-10T13:14:51.420Z,40.30
2018-09-10T13:24:32.893Z,39.00
2018-09-10T13:27:10.400Z,39.20
2018-09-10T13:29:45.365Z,39.10
2018-09-10T13:32:20.993Z,38.40
2018-09-10T13:34:55.559Z,38.40
2018-09-10T16:03:37.711Z,37.40
2018-09-10T16:06:15.864Z,40.00
2018-09-10T16:08:50.386Z,39.30
2018-09-10T16:14:03.833Z,39.60
2018-09-10T16:55:29.287Z,40.90
2018-09-10T17:18:47.348Z,40.20
2018-09-10T17:21:28.408Z,41.30
2018-09-10T17:24:04.383Z,41.70
2018-09-10T17:26:39.969Z,41.30
2018-09-10T17:29:14.426Z,41.50
2018-09-10T17:31:50.307Z,42.00
2018-09-10T17:34:33.940Z,42.20
2018-09-10T17:37:08.816Z,42.20
2018-09-10T17:39:43.347Z,42.20
2018-09-10T17:42:17.719Z,41.60
2018-09-10T17:44:52.053Z,42.20
2018-09-10T17:50:00.570Z,42.00
2018-09-10T17:52:36.292Z,43.30
2018-09-10T17:55:10.893Z,43.60
2018-09-10T17:57:47.063Z,43.60
2018-09-10T18:00:24.656Z,43.80
2018-09-10T18:02:59.052Z,43.70
2018-09-10T18:05:34.275Z,43.80
2018-09-10T18:08:09.792Z,44.10
2018-09-10T18:10:45.611Z,44.40
2018-09-10T18:13:26.423Z,44.60
2018-09-10T18:16:02.403Z,44.60
2018-09-10T18:18:41.349Z,45.80
2018-09-10T18:21:16.058Z,45.40
2018-09-10T18:23:52.016Z,45.20
2018-09-10T18:26:29.100Z,45.30
2018-09-10T18:29:03.373Z,45.60
2018-09-10T18:31:39.129Z,45.60
2018-09-10T18:34:13.605Z,48.80
2018-09-10T18:36:48.278Z,46.10
2018-09-10T18:39:22.771Z,46.00
2018-09-10T18:41:57.312Z,46.10
2018-09-10T18:44:31.656Z,46.60
2018-09-10T18:49:41.458Z,46.90
2018-09-10T18:52:16.579Z,47.20
2018-09-10T18:54:50.880Z,47.40
2018-09-10T18:57:26.862Z,47.40
2018-09-10T19:00:01.185Z,47.70
2018-09-10T19:02:40.386Z,47.90
2018-09-10T19:05:14.758Z,48.20
2018-09-10T19:07:50.509Z,48.40
2018-09-10T19:10:27.695Z,48.50
2018-09-10T19:13:06.827Z,48.70
2018-09-10T19:15:43.386Z,49.10
2018-09-10T19:18:19.481Z,49.90
2018-09-10T19:20:54.057Z,49.40
2018-09-10T19:23:29.946Z,50.40
2018-09-10T19:28:49.971Z,51.20
2018-09-10T19:31:25.673Z,54.60
2018-09-10T19:36:35.310Z,51.90
2018-09-10T19:39:10.611Z,52.70
2018-09-10T19:41:45.146Z,53.20
2018-09-10T19:44:19.591Z,53.80
2018-09-10T19:46:54.628Z,54.30
2018-09-10T19:49:30.471Z,54.80
2018-09-10T19:52:04.851Z,55.30
2018-09-10T19:54:39.314Z,55.70
2018-09-10T19:57:15.007Z,56.00
2018-09-10T19:59:49.516Z,56.40
2018-09-10T20:02:26.107Z,56.80
2018-09-10T20:05:02.363Z,57.20
2018-09-10T20:07:38.037Z,57.50
2018-09-10T20:10:14.592Z,57.90
2018-09-10T20:12:58.851Z,58.30
2018-09-10T20:15:35.128Z,58.60
2018-09-10T20:18:11.373Z,59.00
2018-09-10T20:20:45.827Z,59.20
2018-09-10T20:23:21.590Z,59.30
2018-09-10T20:53:15.078Z,59.50
2018-09-10T20:55:49.584Z,67.60
2018-09-10T20:58:25.326Z,68.20
2018-09-10T21:01:07.347Z,68.40
2018-09-10T21:03:41.840Z,68.10
2018-09-10T21:06:22.884Z,69.00
2018-09-10T21:08:57.579Z,68.10
2018-09-10T21:11:33.568Z,69.20
2018-09-10T21:14:09.263Z,69.70
2018-09-10T21:16:43.670Z,70.00
2018-09-10T21:19:20.107Z,70.20
2018-09-10T21:21:56.585Z,70.80
2018-09-10T21:24:31.158Z,71.50
2018-09-10T21:27:07.055Z,72.30
2018-09-10T21:29:41.544Z,73.00
2018-09-10T21:32:17.420Z,73.10
2018-09-10T21:34:51.929Z,73.30
2018-09-10T21:37:26.283Z,74.00
2018-09-10T21:40:00.823Z,74.10
2018-09-10T21:42:35.245Z,74.30
2018-09-10T21:45:09.983Z,75.00
2018-09-10T21:47:45.922Z,75.50
2018-09-10T21:50:21.771Z,75.70
2018-09-10T21:52:56.268Z,76.20
2018-09-10T21:55:32.263Z,76.60
2018-09-10T21:58:06.762Z,76.60
2018-09-10T22:01:00.156Z,77.20
2018-09-10T22:03:34.640Z,77.30
2018-09-10T22:06:16.432Z,77.40
2018-09-10T22:08:53.242Z,77.70
2018-09-10T22:11:29.024Z,78.10
2018-09-10T22:14:04.563Z,78.40
2018-09-10T22:16:38.890Z,78.10
2018-09-10T22:19:14.437Z,78.50
2018-09-10T22:21:49.970Z,79.00
2018-09-10T22:24:24.373Z,79.00
2018-09-10T22:27:00.481Z,79.90
2018-09-10T22:29:34.876Z,79.60
2018-09-10T22:32:10.819Z,79.20
2018-09-10T22:34:45.370Z,79.40
2018-09-10T22:37:19.839Z,79.30
2018-09-10T22:39:55.307Z,79.30
2018-09-10T22:42:29.776Z,79.90
2018-09-10T22:45:04.816Z,79.70
2018-09-10T22:47:43.107Z,79.20
2018-09-10T22:50:20.982Z,80.00
2018-09-10T22:52:55.482Z,79.30
2018-09-10T22:55:29.915Z,78.40
2018-09-10T22:58:04.591Z,78.90
2018-09-10T23:00:39.260Z,79.90
2018-09-10T23:03:13.567Z,80.70
2018-09-10T23:05:49.207Z,80.50
2018-09-10T23:08:24.943Z,81.10
2018-09-10T23:11:01.162Z,81.40
2018-09-10T23:13:37.364Z,79.80
2018-09-10T23:16:11.911Z,80.00
2018-09-10T23:18:48.731Z,79.70
2018-09-10T23:21:29.147Z,80.60
2018-09-10T23:24:03.572Z,80.40
2018-09-10T23:26:39.866Z,80.30
2018-09-10T23:29:16.550Z,81.00
2018-09-10T23:31:53.912Z,81.00
2018-09-10T23:34:28.308Z,81.40
2018-09-10T23:37:03.234Z,81.60
